createdAt,value
2017-10-06T00:01:48.887Z,12.50
2017-10-06T00:04:16.582Z,12.30
2017-10-06T00:06:44.338Z,12.30
2017-10-06T00:09:12.017Z,12.50
2017-10-06T00:11:39.709Z,12.60
2017-10-06T00:16:35.158Z,12.50
2017-10-06T00:19:02.850Z,12.70
2017-10-06T00:21:30.613Z,12.80
2017-10-06T00:23:58.305Z,12.80
2017-10-06T00:26:26.847Z,12.90
2017-10-06T00:28:54.592Z,12.90
2017-10-06T00:31:22.285Z,12.80
2017-10-06T00:36:29.163Z,12.60
2017-10-06T00:38:56.846Z,12.00
2017-10-06T00:41:24.534Z,12.00
2017-10-06T00:43:53.113Z,12.10
2017-10-06T00:46:20.803Z,11.80
2017-10-06T00:48:48.497Z,11.70
2017-10-06T00:51:16.261Z,12.00
2017-10-06T00:53:43.947Z,12.00
2017-10-06T00:56:11.643Z,12.10
2017-10-06T00:58:40.365Z,12.00
2017-10-06T01:01:08.056Z,12.00
2017-10-06T01:03:35.761Z,12.10
2017-10-06T01:06:03.505Z,12.20
2017-10-06T01:08:32.163Z,12.20
2017-10-06T01:10:59.849Z,12.20
2017-10-06T01:15:55.273Z,12.00
2017-10-06T01:18:22.952Z,11.60
2017-10-06T01:20:50.710Z,11.60
2017-10-06T01:23:18.403Z,11.50
2017-10-06T01:25:46.100Z,11.50
2017-10-06T01:28:13.874Z,11.50
2017-10-06T01:33:09.281Z,11.50
2017-10-06T01:35:37.868Z,11.40
2017-10-06T01:38:05.549Z,11.40
2017-10-06T01:43:01.784Z,11.40
2017-10-06T01:45:29.483Z,11.30
2017-10-06T01:47:57.174Z,11.50
2017-10-06T01:50:24.947Z,11.30
2017-10-06T01:52:53.576Z,11.00
2017-10-06T01:55:21.288Z,10.80
2017-10-06T01:57:49.061Z,11.00
2017-10-06T02:00:17.727Z,11.10
2017-10-06T02:05:24.632Z,11.10
2017-10-06T02:07:52.319Z,11.30
2017-10-06T02:10:20.010Z,11.20
2017-10-06T02:12:47.798Z,11.10
2017-10-06T02:15:15.492Z,10.70
2017-10-06T02:17:43.182Z,10.60
2017-10-06T02:20:10.942Z,10.60
2017-10-06T02:22:38.644Z,10.70
2017-10-06T02:25:06.338Z,10.70
2017-10-06T02:27:34.093Z,10.90
2017-10-06T02:30:01.798Z,10.70
2017-10-06T02:32:29.485Z,10.70
2017-10-06T02:34:58.353Z,10.90
2017-10-06T02:37:26.057Z,11.00
2017-10-06T02:39:53.746Z,11.00
2017-10-06T02:45:02.361Z,10.90
2017-10-06T02:47:30.136Z,11.00
2017-10-06T02:49:57.826Z,11.00
2017-10-06T02:52:25.525Z,10.90
2017-10-06T02:54:53.286Z,11.00
2017-10-06T02:57:20.978Z,11.00
2017-10-06T02:59:48.695Z,11.00
2017-10-06T03:02:16.473Z,11.00
2017-10-06T03:04:44.170Z,11.10
2017-10-06T03:07:12.814Z,11.10
2017-10-06T03:09:40.556Z,11.00
2017-10-06T03:12:08.245Z,10.70
2017-10-06T03:14:35.949Z,10.50
2017-10-06T03:19:32.404Z,10.10
2017-10-06T03:24:27.853Z,10.30
2017-10-06T03:26:55.552Z,10.40
2017-10-06T03:29:24.193Z,10.50
2017-10-06T03:31:51.971Z,10.70
2017-10-06T03:34:19.657Z,10.40
2017-10-06T03:36:47.357Z,10.10
2017-10-06T03:44:10.611Z,10.20
2017-10-06T03:46:38.355Z,10.20
2017-10-06T03:49:06.047Z,10.10
2017-10-06T03:51:34.553Z,10.00
2017-10-06T03:54:02.325Z,9.70
2017-10-06T03:56:30.018Z,9.80
2017-10-06T03:58:57.706Z,9.80
2017-10-06T04:01:25.453Z,9.90
2017-10-06T04:03:53.152Z,9.70
2017-10-06T04:06:20.842Z,9.60
2017-10-06T04:11:27.702Z,9.70
2017-10-06T04:18:50.856Z,9.80
2017-10-06T04:21:18.602Z,9.80
2017-10-06T04:23:46.287Z,9.80
2017-10-06T04:26:13.977Z,9.90
2017-10-06T04:31:10.166Z,9.90
2017-10-06T04:33:37.850Z,9.80
2017-10-06T04:36:05.621Z,9.90
2017-10-06T04:38:34.123Z,9.80
2017-10-06T04:41:01.809Z,9.60
2017-10-06T04:43:29.584Z,9.50
2017-10-06T04:45:57.282Z,9.60
2017-10-06T04:48:24.961Z,9.60
2017-10-06T04:50:52.714Z,9.70
2017-10-06T04:53:20.408Z,9.80
2017-10-06T04:55:48.100Z,9.80
2017-10-06T04:58:15.826Z,9.80
2017-10-06T05:00:43.524Z,9.70
2017-10-06T05:03:11.207Z,9.40
2017-10-06T05:05:38.958Z,9.50
2017-10-06T05:08:06.644Z,9.50
2017-10-06T05:10:34.336Z,9.60
2017-10-06T05:17:57.474Z,9.40
2017-10-06T05:20:25.226Z,9.20
2017-10-06T05:22:52.914Z,9.00
2017-10-06T05:25:20.628Z,9.10
2017-10-06T05:27:48.367Z,9.00
2017-10-06T05:30:16.061Z,9.00
2017-10-06T05:32:43.753Z,9.20
2017-10-06T05:35:11.501Z,9.30
2017-10-06T05:37:39.190Z,9.40
2017-10-06T05:42:46.133Z,9.10
2017-10-06T05:45:13.817Z,9.20
2017-10-06T05:47:41.502Z,9.40
2017-10-06T05:50:09.344Z,9.50
2017-10-06T05:52:37.021Z,9.40
2017-10-06T05:55:04.707Z,9.40
2017-10-06T05:57:33.277Z,9.40
2017-10-06T06:00:01.813Z,9.40
2017-10-06T06:02:30.325Z,9.20
2017-10-06T06:04:58.100Z,9.30
2017-10-06T06:07:25.766Z,9.30
2017-10-06T06:12:21.211Z,9.00
2017-10-06T06:14:48.918Z,9.00
2017-10-06T06:17:16.606Z,9.20
2017-10-06T06:19:44.355Z,9.30
2017-10-06T06:22:12.045Z,9.30
2017-10-06T06:27:07.497Z,9.50
2017-10-06T06:29:35.189Z,9.50
2017-10-06T06:32:02.881Z,9.70
2017-10-06T06:34:30.633Z,9.60
2017-10-06T06:36:58.329Z,10.00
2017-10-06T06:39:26.013Z,9.90
2017-10-06T06:41:53.785Z,9.70
2017-10-06T06:44:21.483Z,9.50
2017-10-06T06:46:49.185Z,10.00
2017-10-06T06:49:16.939Z,10.00
2017-10-06T06:51:44.617Z,10.30
2017-10-06T06:54:12.275Z,10.50
2017-10-06T06:56:39.980Z,10.60
2017-10-06T06:59:07.641Z,10.90
2017-10-06T07:01:35.307Z,11.10
2017-10-06T07:06:30.714Z,10.80
2017-10-06T07:14:07.206Z,11.40
2017-10-06T07:16:34.861Z,11.90
2017-10-06T07:19:02.612Z,12.20
2017-10-06T07:21:30.274Z,11.90
2017-10-06T07:23:57.932Z,11.70
2017-10-06T07:26:25.653Z,11.30
2017-10-06T07:28:53.330Z,11.40
2017-10-06T07:31:20.983Z,11.20
2017-10-06T07:33:48.723Z,11.40
2017-10-06T07:36:16.366Z,11.20
2017-10-06T07:38:44.026Z,11.30
2017-10-06T07:41:11.742Z,11.50
2017-10-06T07:43:39.404Z,11.60
2017-10-06T07:46:07.073Z,11.80
2017-10-06T07:48:34.795Z,11.90
2017-10-06T07:51:02.463Z,12.40
2017-10-06T07:53:30.122Z,12.20
2017-10-06T07:55:58.846Z,11.80
2017-10-06T07:58:26.516Z,11.60
2017-10-06T08:00:54.179Z,12.00
2017-10-06T08:03:21.903Z,11.60
2017-10-06T08:05:49.575Z,12.00
2017-10-06T08:08:17.235Z,13.00
2017-10-06T08:10:44.977Z,13.20
2017-10-06T08:13:13.483Z,12.80
2017-10-06T08:15:41.137Z,12.80
2017-10-06T08:18:08.858Z,12.60
2017-10-06T08:23:05.048Z,12.60
2017-10-06T08:25:32.788Z,12.50
2017-10-06T08:28:00.453Z,12.90
2017-10-06T08:30:29.076Z,12.50
2017-10-06T08:35:35.944Z,12.80
2017-10-06T08:38:03.653Z,12.50
2017-10-06T08:40:31.311Z,12.70
2017-10-06T08:42:58.973Z,12.70
2017-10-06T08:45:26.698Z,12.70
2017-10-06T08:47:54.362Z,12.70
2017-10-06T08:50:22.026Z,12.50
2017-10-06T08:52:49.770Z,12.50
2017-10-06T08:55:17.428Z,12.90
2017-10-06T08:57:45.129Z,13.50
2017-10-06T09:00:12.864Z,13.80
2017-10-06T09:02:41.350Z,13.90
2017-10-06T09:05:09.011Z,13.30
2017-10-06T09:07:36.747Z,13.30
2017-10-06T09:10:04.409Z,13.30
2017-10-06T09:12:32.074Z,13.80
2017-10-06T09:14:59.789Z,13.50
2017-10-06T09:17:27.502Z,13.90
2017-10-06T09:19:55.167Z,13.80
2017-10-06T09:22:22.922Z,13.60
2017-10-06T09:24:50.571Z,13.60
2017-10-06T09:27:18.241Z,14.00
2017-10-06T09:29:45.958Z,13.60
2017-10-06T09:34:42.048Z,13.30
2017-10-06T09:37:09.777Z,13.30
2017-10-06T09:39:37.441Z,13.10
2017-10-06T09:42:05.104Z,13.00
2017-10-06T09:44:32.826Z,12.80
2017-10-06T09:49:39.664Z,12.50
2017-10-06T09:52:07.327Z,12.60
2017-10-06T09:54:35.011Z,12.10
2017-10-06T09:57:02.734Z,12.00
2017-10-06T10:01:58.093Z,11.70
2017-10-06T10:04:26.771Z,11.70
2017-10-06T10:06:54.433Z,11.20
2017-10-06T10:09:22.094Z,11.20
2017-10-06T10:11:49.810Z,11.10
2017-10-06T10:14:17.470Z,11.10
2017-10-06T10:16:45.133Z,11.20
2017-10-06T10:21:40.511Z,10.80
2017-10-06T10:24:08.168Z,10.90
2017-10-06T10:26:35.915Z,10.80
2017-10-06T10:29:03.582Z,11.30
2017-10-06T10:31:31.242Z,11.80
2017-10-06T10:33:58.973Z,11.20
2017-10-06T10:36:26.634Z,11.10
2017-10-06T10:38:54.291Z,11.10
2017-10-06T10:41:22.022Z,11.40
2017-10-06T10:43:49.680Z,11.20
2017-10-06T10:46:17.342Z,11.10
2017-10-06T10:48:45.076Z,11.50
2017-10-06T10:51:12.739Z,11.50
2017-10-06T10:53:40.406Z,11.50
2017-10-06T10:56:08.154Z,11.50
2017-10-06T10:58:35.790Z,11.90
2017-10-06T11:01:03.457Z,12.20
2017-10-06T11:03:31.178Z,12.70
2017-10-06T11:05:58.836Z,13.00
2017-10-06T11:08:26.511Z,13.10
2017-10-06T11:10:54.259Z,13.40
2017-10-06T11:16:01.102Z,13.70
2017-10-06T11:18:28.758Z,14.00
2017-10-06T11:20:57.249Z,14.60
2017-10-06T11:23:24.998Z,14.40
2017-10-06T11:25:52.661Z,14.40
2017-10-06T11:28:20.329Z,14.40
2017-10-06T11:30:48.052Z,14.30
2017-10-06T11:33:15.717Z,14.20
2017-10-06T11:35:43.370Z,14.30
2017-10-06T11:43:18.519Z,14.10
2017-10-06T11:45:46.177Z,14.00
2017-10-06T11:48:14.669Z,13.60
2017-10-06T11:50:42.411Z,13.60
2017-10-06T11:53:10.081Z,13.80
2017-10-06T11:55:37.739Z,13.80
2017-10-06T11:58:05.469Z,13.90
2017-10-06T12:00:33.132Z,13.70
2017-10-06T12:03:00.794Z,13.60
2017-10-06T12:05:28.514Z,13.70
2017-10-06T12:10:23.848Z,13.70
2017-10-06T12:12:51.575Z,13.90
2017-10-06T12:15:19.236Z,14.00
2017-10-06T12:17:46.897Z,14.00
2017-10-06T12:20:14.614Z,13.90
2017-10-06T12:22:42.271Z,14.10
2017-10-06T12:25:09.925Z,14.00
2017-10-06T12:27:37.649Z,14.10
2017-10-06T12:30:06.258Z,13.90
2017-10-06T12:32:33.914Z,13.70
2017-10-06T12:35:01.632Z,13.30
2017-10-06T12:37:29.302Z,13.40
2017-10-06T12:39:57.721Z,13.40
2017-10-06T12:42:25.448Z,13.50
2017-10-06T12:44:53.098Z,14.00
2017-10-06T12:47:20.849Z,14.20
2017-10-06T12:49:48.578Z,13.90
2017-10-06T12:52:16.238Z,13.50
2017-10-06T12:54:43.977Z,13.40
2017-10-06T12:57:11.706Z,13.70
2017-10-06T12:59:40.321Z,13.80
2017-10-06T13:02:07.986Z,13.60
2017-10-06T13:04:35.706Z,13.60
2017-10-06T13:07:03.362Z,13.90
2017-10-06T13:12:10.209Z,14.00
2017-10-06T13:14:37.865Z,14.20
2017-10-06T13:17:05.538Z,14.20
2017-10-06T13:19:33.322Z,14.10
2017-10-06T13:22:01.015Z,14.00
2017-10-06T13:24:28.678Z,13.70
2017-10-06T13:26:56.395Z,13.80
2017-10-06T13:29:24.052Z,13.90
2017-10-06T13:31:51.711Z,14.00
2017-10-06T13:34:19.437Z,14.10
2017-10-06T13:36:48.051Z,14.00
2017-10-06T13:39:15.722Z,13.60
2017-10-06T13:41:43.453Z,13.00
2017-10-06T13:44:11.135Z,12.70
2017-10-06T13:46:38.793Z,12.80
2017-10-06T13:49:06.508Z,12.90
2017-10-06T13:51:34.174Z,12.90
2017-10-06T13:54:01.831Z,13.00
2017-10-06T13:56:30.369Z,13.00
2017-10-06T13:58:58.035Z,13.10
2017-10-06T14:01:25.713Z,13.10
2017-10-06T14:03:53.450Z,13.00
2017-10-06T14:06:21.120Z,13.00
2017-10-06T14:08:48.799Z,13.10
2017-10-06T14:11:16.517Z,13.30
2017-10-06T14:13:45.043Z,13.60
2017-10-06T14:16:12.739Z,14.10
2017-10-06T14:18:40.494Z,14.50
2017-10-06T14:21:08.157Z,14.70
2017-10-06T14:23:35.861Z,14.30
2017-10-06T14:26:03.591Z,14.10
2017-10-06T14:30:58.906Z,13.90
2017-10-06T14:33:26.648Z,13.90
2017-10-06T14:35:54.315Z,13.80
2017-10-06T14:38:21.971Z,14.10
2017-10-06T14:43:31.771Z,13.60
2017-10-06T14:45:59.506Z,13.40
2017-10-06T14:48:27.179Z,13.30
2017-10-06T14:50:54.825Z,13.50
2017-10-06T14:53:22.545Z,13.20
2017-10-06T14:55:50.212Z,13.50
2017-10-06T14:58:17.869Z,13.60
2017-10-06T15:00:45.584Z,13.60
2017-10-06T15:03:13.246Z,13.40
2017-10-06T15:08:08.661Z,13.40
2017-10-06T15:10:36.318Z,12.70
2017-10-06T15:13:03.965Z,12.70
2017-10-06T15:15:31.706Z,12.80
2017-10-06T15:17:59.366Z,12.80
2017-10-06T15:20:27.022Z,12.70
2017-10-06T15:22:54.748Z,12.80
2017-10-06T15:25:23.274Z,12.80
2017-10-06T15:27:50.939Z,12.70
2017-10-06T15:30:19.670Z,13.00
2017-10-06T15:32:48.174Z,12.60
2017-10-06T15:35:15.841Z,12.30
2017-10-06T15:37:44.405Z,12.40
2017-10-06T15:40:12.073Z,12.50
2017-10-06T15:42:39.738Z,12.60
2017-10-06T15:45:07.468Z,12.40
2017-10-06T15:47:35.966Z,12.50
2017-10-06T15:50:03.629Z,12.50
2017-10-06T15:52:31.383Z,12.40
2017-10-06T15:54:59.042Z,12.60
2017-10-06T15:57:27.657Z,12.60
2017-10-06T15:59:55.384Z,12.40
2017-10-06T16:02:23.085Z,12.60
2017-10-06T16:04:50.742Z,12.40
2017-10-06T16:07:18.479Z,11.60
2017-10-06T16:12:25.318Z,11.70
2017-10-06T16:14:52.975Z,11.80
2017-10-06T16:17:21.473Z,11.70
2017-10-06T16:19:50.030Z,11.70
2017-10-06T16:22:17.683Z,11.70
2017-10-06T16:24:45.358Z,11.70
2017-10-06T16:27:13.091Z,11.80
2017-10-06T16:29:40.763Z,11.40
2017-10-06T16:32:09.257Z,11.20
2017-10-06T16:34:36.993Z,11.20
2017-10-06T16:37:04.660Z,11.30
2017-10-06T16:39:32.331Z,11.30
2017-10-06T16:42:00.080Z,11.10
2017-10-06T16:44:27.721Z,11.10
2017-10-06T16:46:55.392Z,11.00
2017-10-06T16:49:23.130Z,11.00
2017-10-06T16:51:50.795Z,10.90
2017-10-06T16:56:46.180Z,10.80
2017-10-06T16:59:13.841Z,10.70
2017-10-06T17:01:42.462Z,10.70
2017-10-06T17:04:10.190Z,10.80
2017-10-06T17:06:37.847Z,10.80
2017-10-06T17:09:05.518Z,10.80
2017-10-06T17:11:34.074Z,10.60
2017-10-06T17:14:01.726Z,10.50
2017-10-06T17:16:29.412Z,10.40
2017-10-06T17:18:57.135Z,10.30
2017-10-06T17:21:25.622Z,10.20
2017-10-06T17:23:53.293Z,10.20
2017-10-06T17:26:21.830Z,10.10
2017-10-06T17:28:50.337Z,9.40
2017-10-06T17:31:18.835Z,9.40
2017-10-06T17:33:46.565Z,9.50
2017-10-06T17:38:53.400Z,9.50
2017-10-06T17:41:21.946Z,9.30
2017-10-06T17:43:49.614Z,9.30
2017-10-06T17:46:18.148Z,9.40
2017-10-06T17:48:45.798Z,9.40
2017-10-06T17:51:13.453Z,9.20
2017-10-06T17:53:42.030Z,9.00
2017-10-06T17:56:10.427Z,8.90
2017-10-06T18:01:09.976Z,9.10
2017-10-06T18:03:37.633Z,9.20
2017-10-06T18:06:05.333Z,9.30
2017-10-06T18:08:33.063Z,8.80
2017-10-06T18:11:00.733Z,8.50
2017-10-06T18:13:28.391Z,8.40
2017-10-06T18:15:56.140Z,8.30
2017-10-06T18:18:23.820Z,8.30
2017-10-06T18:20:51.514Z,8.10
2017-10-06T18:23:20.210Z,8.00
2017-10-06T18:25:48.731Z,7.90
2017-10-06T18:28:16.414Z,8.00
2017-10-06T18:30:44.122Z,8.20
2017-10-06T18:33:11.780Z,8.50
2017-10-06T18:38:08.028Z,8.80
2017-10-06T18:40:35.730Z,8.70
2017-10-06T18:43:03.380Z,8.70
2017-10-06T18:45:31.096Z,8.60
2017-10-06T18:47:58.772Z,8.20
2017-10-06T18:50:26.435Z,8.00
2017-10-06T18:57:50.522Z,7.70
2017-10-06T19:00:18.263Z,7.60
2017-10-06T19:07:54.911Z,7.50
2017-10-06T19:10:23.381Z,7.50
2017-10-06T19:12:51.419Z,7.60
2017-10-06T19:17:46.709Z,7.50
2017-10-06T19:20:14.488Z,7.40
2017-10-06T19:22:42.148Z,7.30
2017-10-06T19:25:09.801Z,7.30
2017-10-06T19:27:38.601Z,7.20
2017-10-06T19:30:06.373Z,7.20
2017-10-06T19:32:34.017Z,7.20
2017-10-06T19:35:01.752Z,7.20
2017-10-06T19:37:29.405Z,7.30
2017-10-06T19:39:57.058Z,7.20
2017-10-06T19:47:20.128Z,7.20
2017-10-06T19:49:47.857Z,7.20
2017-10-06T19:52:16.448Z,7.20
2017-10-06T19:54:44.109Z,6.90
2017-10-06T19:57:11.841Z,6.90
2017-10-06T19:59:39.498Z,7.00
2017-10-06T20:02:07.175Z,7.00
2017-10-06T20:04:34.928Z,7.20
2017-10-06T20:07:02.580Z,7.50
2017-10-06T20:09:30.329Z,7.60
2017-10-06T20:11:58.070Z,7.70
2017-10-06T20:14:25.726Z,7.70
2017-10-06T20:19:21.116Z,7.30
2017-10-06T20:21:48.773Z,7.30
2017-10-06T20:24:16.457Z,7.40
2017-10-06T20:26:45.144Z,7.40
2017-10-06T20:31:52.815Z,7.30
2017-10-06T20:34:21.305Z,7.40
2017-10-06T20:36:48.959Z,7.50
2017-10-06T20:39:16.693Z,7.20
2017-10-06T20:41:45.352Z,7.00
2017-10-06T20:44:12.976Z,6.90
2017-10-06T20:46:41.691Z,7.00
2017-10-06T20:49:09.363Z,6.90
2017-10-06T20:51:37.020Z,7.10
2017-10-06T20:54:04.809Z,7.00
2017-10-06T20:56:32.460Z,6.90
2017-10-06T20:59:00.140Z,7.00
2017-10-06T21:01:27.885Z,7.00
2017-10-06T21:03:55.540Z,6.90
2017-10-06T21:06:23.194Z,7.00
2017-10-06T21:11:18.596Z,7.10
2017-10-06T21:13:47.279Z,7.00
2017-10-06T21:16:15.001Z,6.90
2017-10-06T21:18:43.629Z,6.80
2017-10-06T21:21:11.292Z,6.80
2017-10-06T21:23:39.039Z,6.90
2017-10-06T21:26:06.701Z,6.80
2017-10-06T21:28:34.386Z,6.90
2017-10-06T21:31:02.101Z,6.90
2017-10-06T21:33:30.584Z,6.70
2017-10-06T21:35:58.277Z,6.80
2017-10-06T21:38:26.015Z,6.80
2017-10-06T21:40:53.682Z,6.80
2017-10-06T21:43:21.350Z,6.80
2017-10-06T21:45:49.070Z,6.60
2017-10-06T21:48:16.729Z,6.70
2017-10-06T21:50:44.391Z,6.70
2017-10-06T21:53:12.121Z,6.60
2017-10-06T21:55:39.770Z,6.60
2017-10-06T22:00:48.599Z,6.60
2017-10-06T22:03:16.249Z,6.60
2017-10-06T22:05:43.914Z,6.70
2017-10-06T22:08:11.634Z,6.80
2017-10-06T22:10:39.293Z,6.90
2017-10-06T22:13:06.932Z,6.90
2017-10-06T22:15:34.671Z,6.80
2017-10-06T22:18:02.329Z,6.80
2017-10-06T22:20:29.977Z,6.80
2017-10-06T22:22:57.692Z,6.70
2017-10-06T22:25:25.345Z,6.60
2017-10-06T22:27:53.003Z,6.70
2017-10-06T22:30:20.727Z,6.70
2017-10-06T22:32:48.388Z,6.80
2017-10-06T22:35:16.059Z,6.80
2017-10-06T22:37:43.771Z,6.80
2017-10-06T22:40:11.435Z,6.70
2017-10-06T22:42:39.094Z,6.70
2017-10-06T22:45:06.804Z,6.80
2017-10-06T22:47:34.464Z,6.80
2017-10-06T22:50:02.121Z,7.10
2017-10-06T22:52:29.830Z,7.20
2017-10-06T22:54:57.478Z,7.30
2017-10-06T22:57:25.136Z,7.20
2017-10-06T22:59:52.843Z,7.10
2017-10-06T23:02:21.455Z,7.00
2017-10-06T23:04:49.106Z,7.10
2017-10-06T23:07:16.827Z,7.10
2017-10-06T23:09:44.482Z,7.10
2017-10-06T23:12:12.134Z,7.20
2017-10-06T23:14:39.901Z,7.20
2017-10-06T23:17:07.555Z,7.20
2017-10-06T23:19:35.203Z,7.20
2017-10-06T23:24:44.985Z,7.30
2017-10-06T23:27:13.368Z,7.30
2017-10-06T23:29:41.059Z,7.20
2017-10-06T23:32:08.713Z,7.20
2017-10-06T23:34:36.444Z,7.20
2017-10-06T23:37:04.105Z,7.00
2017-10-06T23:39:32.721Z,6.90
2017-10-06T23:42:00.444Z,6.80
2017-10-06T23:44:28.929Z,6.80
2017-10-06T23:46:56.597Z,6.80
2017-10-06T23:49:25.269Z,7.00
2017-10-06T23:51:52.920Z,7.00
2017-10-06T23:54:20.574Z,7.00
2017-10-06T23:56:48.286Z,7.00
2017-10-06T23:59:15.938Z,7.00
